Kinoura — 3FHE5 — position and weather

sailwx.info

Track history (hours):
 
Tides and Currents Weather Stations Pressure Air Temp Water Temp Dewpoint Dewpoint Depression Visibility Wind Speed Wind Dir Waves Ship Positions

Kinoura

Last reported at 2015-Jul-02 12:32 UTC. Time now 2015-Jul-08 02:11 UTC.
Position S 26°40' E 153°14'.

Length 227 m; draft 14.3 m.

Type: Cargo ship. MMSI: 373041000.

Date/timePositionNaut miles runAvg speedWind from/ knotsBaromVisibWave heightAir tempDewpointWater temp
2015-Jul-02 12:32S 26°40' E 153°14'9 9.5
2015-Jul-02 11:34S 26°49' E 153°11'9 9.0
2015-Jul-02 10:34S 26°57' E 153°13'10 9.7
2015-Jul-02 09:34S 27°06' E 153°19'9 8.6
2015-Jul-02 08:34S 27°14' E 153°20'3 2.8
2015-Jul-02 07:33S 27°16' E 153°18'0 0.2
2015-Jul-02 06:33S 27°16' E 153°18'0 0.1
2015-Jul-02 05:33S 27°16' E 153°18'0 0.0
2015-Jul-02 04:33S 27°16' E 153°18'0 0.1
2015-Jul-02 03:33S 27°16' E 153°18'0 0.0
2015-Jul-02 02:33S 27°16' E 153°18'0 0.1
2015-Jul-02 01:33S 27°16' E 153°18'0 0.1
2015-Jul-02 00:33S 27°16' E 153°18'3 2.7
2015-Jul-01 23:33S 27°17' E 153°15'8 7.9
2015-Jul-01 22:33S 27°23' E 153°09'0 0.1
2015-Jul-01 21:33S 27°23' E 153°10'0 0.0
2015-Jul-01 20:33S 27°23' E 153°10'0 0.0
2015-Jul-01 19:33S 27°23' E 153°10'0 0.0
2015-Jul-01 18:33S 27°23' E 153°10'0 0.0
2015-Jul-01 17:30S 27°23' E 153°10'0 0.0
2015-Jul-01 16:33S 27°23' E 153°10'0 0.0
2015-Jul-01 15:33S 27°23' E 153°10'0 0.0
2015-Jul-01 14:33S 27°23' E 153°10'0 0.0
2015-Jul-01 13:30S 27°23' E 153°10'0 0.0
2015-Jul-01 12:30S 27°23' E 153°10'0 0.0
2015-Jul-01 11:30S 27°23' E 153°10'0 0.0
2015-Jul-01 10:33S 27°23' E 153°10'0 0.0
2015-Jul-01 09:33S 27°23' E 153°10'0 0.0
2015-Jul-01 08:33S 27°23' E 153°10'0 0.0
2015-Jul-01 07:33S 27°23' E 153°10'0 0.0
2015-Jul-01 06:12S 27°23' E 153°10'0 0.0
2015-Jul-01 05:12S 27°23' E 153°10'0 0.0
2015-Jul-01 04:18S 27°23' E 153°10'0 0.0
2015-Jul-01 03:33S 27°23' E 153°10'0 0.0
2015-Jul-01 02:30S 27°23' E 153°10'0 0.0
2015-Jul-01 01:30S 27°23' E 153°10'0 0.0
2015-Jul-01 00:30S 27°23' E 153°10'0 0.0
2015-Jun-30 23:27S 27°23' E 153°10'0 0.0
2015-Jun-30 22:33S 27°23' E 153°10'0 0.0
2015-Jun-30 21:33S 27°23' E 153°10'0 0.0
2015-Jun-30 20:33S 27°23' E 153°10'0 0.0
2015-Jun-30 19:33S 27°23' E 153°10'0 0.0
2015-Jun-30 18:33S 27°23' E 153°10'0 0.0
2015-Jun-30 17:33S 27°23' E 153°10'0 0.0
2015-Jun-30 16:33S 27°23' E 153°10'0 0.0
2015-Jun-30 15:33S 27°23' E 153°10'0 0.0
2015-Jun-30 14:33S 27°23' E 153°10'0 0.0
2015-Jun-30 13:33S 27°23' E 153°10'0 0.0
2015-Jun-30 12:33S 27°23' E 153°10'0 0.0
2015-Jun-30 11:33S 27°23' E 153°10'0 0.0
2015-Jun-30 10:33S 27°23' E 153°10'0 0.0
2015-Jun-30 09:33S 27°23' E 153°10'0 0.0
2015-Jun-30 08:33S 27°23' E 153°10'0 0.0
2015-Jun-30 07:33S 27°23' E 153°10'0 0.0
2015-Jun-30 06:33S 27°23' E 153°10'0 0.0
2015-Jun-30 05:30S 27°23' E 153°10'0 0.0
2015-Jun-30 04:33S 27°23' E 153°10'0 0.0
2015-Jun-30 03:24S 27°23' E 153°10'0 0.0
2015-Jun-30 01:33S 27°23' E 153°10'5 5.3
2015-Jun-30 00:33S 27°19' E 153°12'1111.4
2015-Jun-29 23:33S 27°10' E 153°21'1211.9
2015-Jun-29 22:33S 26°60' E 153°14'1211.7
2015-Jun-29 21:34S 26°49' E 153°11'6 6.2
2015-Jun-29 20:33S 26°42' E 153°12'5 5.0
2015-Jun-29 19:31S 26°41' E 153°17'0 0.1
2015-Jun-29 18:31S 26°41' E 153°17'0 0.1
2015-Jun-29 17:31S 26°41' E 153°17'0 0.0
2015-Jun-29 16:31S 26°41' E 153°17'0 0.0
2015-Jun-29 15:31S 26°41' E 153°17'0 0.0
2015-Jun-29 14:31S 26°41' E 153°17'0 0.1
2015-Jun-29 13:31S 26°41' E 153°17'0 0.0
2015-Jun-29 12:28S 26°41' E 153°17'0 0.0
2015-Jun-29 11:31S 26°41' E 153°17'0 0.0
2015-Jun-29 10:31S 26°41' E 153°17'0 0.0
2015-Jun-29 09:31S 26°41' E 153°17'0 0.1
2015-Jun-29 08:31S 26°41' E 153°17'0 0.0
2015-Jun-29 07:31S 26°41' E 153°17'0 0.1
2015-Jun-29 06:31S 26°41' E 153°17'0 0.0
2015-Jun-29 05:31S 26°41' E 153°17'0 0.0
2015-Jun-29 04:31S 26°41' E 153°17'0 0.0
2015-Jun-29 03:31S 26°41' E 153°17'0 0.0
2015-Jun-29 02:31S 26°41' E 153°17'0 0.1
2015-Jun-29 01:31S 26°41' E 153°17'0 0.0
2015-Jun-29 00:31S 26°41' E 153°17'0 0.1
2015-Jun-28 23:31S 26°41' E 153°17'0 0.1
2015-Jun-28 22:31S 26°41' E 153°17'0 0.0
2015-Jun-28 21:31S 26°41' E 153°17'0 0.0
2015-Jun-28 20:28S 26°41' E 153°17'0 0.0
2015-Jun-28 19:28S 26°41' E 153°17'0 0.0
2015-Jun-28 18:31S 26°41' E 153°17'0 0.1
2015-Jun-28 17:28S 26°41' E 153°18'0 0.0
2015-Jun-28 16:31S 26°41' E 153°18'0 0.1
2015-Jun-28 15:31S 26°41' E 153°17'0 0.1
2015-Jun-28 14:31S 26°41' E 153°18'0 0.1
2015-Jun-28 13:31S 26°41' E 153°17'0 0.1
2015-Jun-28 12:31S 26°41' E 153°18'0 0.1
2015-Jun-28 11:28S 26°41' E 153°17'0 0.1
2015-Jun-28 10:28S 26°41' E 153°17'0 0.0
2015-Jun-28 09:31S 26°41' E 153°17'0 0.0
2015-Jun-28 08:31S 26°41' E 153°17'0 0.0
2015-Jun-28 07:31S 26°41' E 153°17'0 0.0
2015-Jun-28 06:31S 26°41' E 153°17'0 0.0
2015-Jun-28 05:31S 26°41' E 153°17'0 0.0
2015-Jun-28 04:31S 26°41' E 153°17'0 0.1
2015-Jun-28 03:31S 26°41' E 153°17'0 0.0
2015-Jun-28 02:31S 26°41' E 153°17'0 0.1
2015-Jun-28 01:31S 26°41' E 153°18'0 0.1
2015-Jun-28 00:31S 26°41' E 153°17'0 0.0
2015-Jun-27 23:31S 26°41' E 153°17'0 0.0
2015-Jun-27 22:31S 26°41' E 153°17'0 0.0
2015-Jun-27 21:31S 26°41' E 153°17'0 0.0
2015-Jun-27 20:31S 26°41' E 153°17'0 0.0
2015-Jun-27 19:31S 26°41' E 153°17'0 0.0
2015-Jun-27 18:31S 26°41' E 153°17'0 0.5
2015-Jun-27 17:33S 26°40' E 153°18'8 8.1
2015-Jun-27 16:33S 26°32' E 153°18'  
Track history (hours):
 
Tides and Currents Weather Stations Pressure Air Temp Water Temp Dewpoint Dewpoint Depression Visibility Wind Speed Wind Dir Waves Ship Positions

Kinoura

Last reported at 2015-Jul-02 12:32 UTC. Time now 2015-Jul-08 02:11 UTC.
Position S 26°40' E 153°14'.

Length 227 m; draft 14.3 m.

Type: Cargo ship. MMSI: 373041000.

Date/timePositionNaut miles runAvg speedWind from/ knotsBaromVisibWave heightAir tempDewpointWater temp
2015-Jul-02 12:32S 26°40' E 153°14'9 9.5
2015-Jul-02 11:34S 26°49' E 153°11'9 9.0
2015-Jul-02 10:34S 26°57' E 153°13'10 9.7
2015-Jul-02 09:34S 27°06' E 153°19'9 8.6
2015-Jul-02 08:34S 27°14' E 153°20'3 2.8
2015-Jul-02 07:33S 27°16' E 153°18'0 0.2
2015-Jul-02 06:33S 27°16' E 153°18'0 0.1
2015-Jul-02 05:33S 27°16' E 153°18'0 0.0
2015-Jul-02 04:33S 27°16' E 153°18'0 0.1
2015-Jul-02 03:33S 27°16' E 153°18'0 0.0
2015-Jul-02 02:33S 27°16' E 153°18'0 0.1
2015-Jul-02 01:33S 27°16' E 153°18'0 0.1
2015-Jul-02 00:33S 27°16' E 153°18'3 2.7
2015-Jul-01 23:33S 27°17' E 153°15'8 7.9
2015-Jul-01 22:33S 27°23' E 153°09'0 0.1
2015-Jul-01 21:33S 27°23' E 153°10'0 0.0
2015-Jul-01 20:33S 27°23' E 153°10'0 0.0
2015-Jul-01 19:33S 27°23' E 153°10'0 0.0
2015-Jul-01 18:33S 27°23' E 153°10'0 0.0
2015-Jul-01 17:30S 27°23' E 153°10'0 0.0
2015-Jul-01 16:33S 27°23' E 153°10'0 0.0
2015-Jul-01 15:33S 27°23' E 153°10'0 0.0
2015-Jul-01 14:33S 27°23' E 153°10'0 0.0
2015-Jul-01 13:30S 27°23' E 153°10'0 0.0
2015-Jul-01 12:30S 27°23' E 153°10'0 0.0
2015-Jul-01 11:30S 27°23' E 153°10'0 0.0
2015-Jul-01 10:33S 27°23' E 153°10'0 0.0
2015-Jul-01 09:33S 27°23' E 153°10'0 0.0
2015-Jul-01 08:33S 27°23' E 153°10'0 0.0
2015-Jul-01 07:33S 27°23' E 153°10'0 0.0
2015-Jul-01 06:12S 27°23' E 153°10'0 0.0
2015-Jul-01 05:12S 27°23' E 153°10'0 0.0
2015-Jul-01 04:18S 27°23' E 153°10'0 0.0
2015-Jul-01 03:33S 27°23' E 153°10'0 0.0
2015-Jul-01 02:30S 27°23' E 153°10'0 0.0
2015-Jul-01 01:30S 27°23' E 153°10'0 0.0
2015-Jul-01 00:30S 27°23' E 153°10'0 0.0
2015-Jun-30 23:27S 27°23' E 153°10'0 0.0
2015-Jun-30 22:33S 27°23' E 153°10'0 0.0
2015-Jun-30 21:33S 27°23' E 153°10'0 0.0
2015-Jun-30 20:33S 27°23' E 153°10'0 0.0
2015-Jun-30 19:33S 27°23' E 153°10'0 0.0
2015-Jun-30 18:33S 27°23' E 153°10'0 0.0
2015-Jun-30 17:33S 27°23' E 153°10'0 0.0
2015-Jun-30 16:33S 27°23' E 153°10'0 0.0
2015-Jun-30 15:33S 27°23' E 153°10'0 0.0
2015-Jun-30 14:33S 27°23' E 153°10'0 0.0
2015-Jun-30 13:33S 27°23' E 153°10'0 0.0
2015-Jun-30 12:33S 27°23' E 153°10'0 0.0
2015-Jun-30 11:33S 27°23' E 153°10'0 0.0
2015-Jun-30 10:33S 27°23' E 153°10'0 0.0
2015-Jun-30 09:33S 27°23' E 153°10'0 0.0
2015-Jun-30 08:33S 27°23' E 153°10'0 0.0
2015-Jun-30 07:33S 27°23' E 153°10'0 0.0
2015-Jun-30 06:33S 27°23' E 153°10'0 0.0
2015-Jun-30 05:30S 27°23' E 153°10'0 0.0
2015-Jun-30 04:33S 27°23' E 153°10'0 0.0
2015-Jun-30 03:24S 27°23' E 153°10'0 0.0
2015-Jun-30 01:33S 27°23' E 153°10'5 5.3
2015-Jun-30 00:33S 27°19' E 153°12'1111.4
2015-Jun-29 23:33S 27°10' E 153°21'1211.9
2015-Jun-29 22:33S 26°60' E 153°14'1211.7
2015-Jun-29 21:34S 26°49' E 153°11'6 6.2
2015-Jun-29 20:33S 26°42' E 153°12'5 5.0
2015-Jun-29 19:31S 26°41' E 153°17'0 0.1
2015-Jun-29 18:31S 26°41' E 153°17'0 0.1
2015-Jun-29 17:31S 26°41' E 153°17'0 0.0
2015-Jun-29 16:31S 26°41' E 153°17'0 0.0
2015-Jun-29 15:31S 26°41' E 153°17'0 0.0
2015-Jun-29 14:31S 26°41' E 153°17'0 0.1
2015-Jun-29 13:31S 26°41' E 153°17'0 0.0
2015-Jun-29 12:28S 26°41' E 153°17'0 0.0
2015-Jun-29 11:31S 26°41' E 153°17'0 0.0
2015-Jun-29 10:31S 26°41' E 153°17'0 0.0
2015-Jun-29 09:31S 26°41' E 153°17'0 0.1
2015-Jun-29 08:31S 26°41' E 153°17'0 0.0
2015-Jun-29 07:31S 26°41' E 153°17'0 0.1
2015-Jun-29 06:31S 26°41' E 153°17'0 0.0
2015-Jun-29 05:31S 26°41' E 153°17'0 0.0
2015-Jun-29 04:31S 26°41' E 153°17'0 0.0
2015-Jun-29 03:31S 26°41' E 153°17'0 0.0
2015-Jun-29 02:31S 26°41' E 153°17'0 0.1
2015-Jun-29 01:31S 26°41' E 153°17'0 0.0
2015-Jun-29 00:31S 26°41' E 153°17'0 0.1
2015-Jun-28 23:31S 26°41' E 153°17'0 0.1
2015-Jun-28 22:31S 26°41' E 153°17'0 0.0
2015-Jun-28 21:31S 26°41' E 153°17'0 0.0
2015-Jun-28 20:28S 26°41' E 153°17'0 0.0
2015-Jun-28 19:28S 26°41' E 153°17'0 0.0
2015-Jun-28 18:31S 26°41' E 153°17'0 0.1
2015-Jun-28 17:28S 26°41' E 153°18'0 0.0
2015-Jun-28 16:31S 26°41' E 153°18'0 0.1
2015-Jun-28 15:31S 26°41' E 153°17'0 0.1
2015-Jun-28 14:31S 26°41' E 153°18'0 0.1
2015-Jun-28 13:31S 26°41' E 153°17'0 0.1
2015-Jun-28 12:31S 26°41' E 153°18'0 0.1
2015-Jun-28 11:28S 26°41' E 153°17'0 0.1
2015-Jun-28 10:28S 26°41' E 153°17'0 0.0
2015-Jun-28 09:31S 26°41' E 153°17'0 0.0
2015-Jun-28 08:31S 26°41' E 153°17'0 0.0
2015-Jun-28 07:31S 26°41' E 153°17'0 0.0
2015-Jun-28 06:31S 26°41' E 153°17'0 0.0
2015-Jun-28 05:31S 26°41' E 153°17'0 0.0
2015-Jun-28 04:31S 26°41' E 153°17'0 0.1
2015-Jun-28 03:31S 26°41' E 153°17'0 0.0
2015-Jun-28 02:31S 26°41' E 153°17'0 0.1
2015-Jun-28 01:31S 26°41' E 153°18'0 0.1
2015-Jun-28 00:31S 26°41' E 153°17'0 0.0
2015-Jun-27 23:31S 26°41' E 153°17'0 0.0
2015-Jun-27 22:31S 26°41' E 153°17'0 0.0
2015-Jun-27 21:31S 26°41' E 153°17'0 0.0
2015-Jun-27 20:31S 26°41' E 153°17'0 0.0
2015-Jun-27 19:31S 26°41' E 153°17'0 0.0
2015-Jun-27 18:31S 26°41' E 153°17'0 0.5
2015-Jun-27 17:33S 26°40' E 153°18'8 8.1
2015-Jun-27 16:33S 26°32' E 153°18'  

Dump ship's entire track history